createdAt,value
2019-03-06T00:04:50.006Z,4.90
2019-03-06T00:07:22.624Z,4.70
2019-03-06T00:13:53.626Z,4.70
2019-03-06T00:20:25.860Z,4.70
2019-03-06T00:26:56.353Z,4.80
2019-03-06T00:33:27.576Z,5.00
2019-03-06T00:40:00.353Z,5.20
2019-03-06T00:50:25.567Z,5.20
2019-03-06T00:53:50.171Z,5.20
2019-03-06T01:00:24.142Z,5.40
2019-03-06T01:06:55.357Z,5.50
2019-03-06T01:13:28.494Z,5.60
2019-03-06T01:19:58.944Z,5.40
2019-03-06T01:26:29.730Z,5.40
2019-03-06T01:33:04.984Z,5.30
2019-03-06T01:36:29.688Z,5.20
2019-03-06T01:43:01.971Z,5.30
2019-03-06T01:49:33.114Z,5.20
2019-03-06T01:56:04.129Z,5.20
2019-03-06T02:02:35.170Z,5.10
2019-03-06T02:05:59.618Z,5.00
2019-03-06T02:12:30.736Z,4.90
2019-03-06T02:19:02.216Z,4.70
2019-03-06T02:22:26.855Z,4.70
2019-03-06T02:28:57.588Z,4.60
2019-03-06T02:35:27.995Z,4.80
2019-03-06T02:41:58.656Z,4.80
2019-03-06T02:48:29.458Z,4.70
2019-03-06T02:50:59.455Z,4.60
2019-03-06T02:57:30.376Z,4.40
2019-03-06T03:04:02.676Z,4.10
2019-03-06T03:10:33.786Z,3.80
2019-03-06T03:13:58.544Z,3.70
2019-03-06T03:20:29.299Z,3.60
2019-03-06T03:27:00.561Z,3.60
2019-03-06T03:33:31.085Z,3.60
2019-03-06T03:36:55.377Z,3.70
2019-03-06T03:43:25.995Z,3.50
2019-03-06T03:49:56.485Z,3.40
2019-03-06T03:56:28.171Z,3.40
2019-03-06T03:59:55.547Z,3.30
2019-03-06T04:06:43.627Z,3.30
2019-03-06T04:09:26.496Z,3.30
2019-03-06T04:11:56.707Z,3.30
2019-03-06T04:14:26.459Z,3.20
2019-03-06T04:17:50.715Z,3.10
2019-03-06T04:24:20.932Z,3.00
2019-03-06T04:30:52.815Z,2.80
2019-03-06T04:34:17.311Z,2.70
2019-03-06T04:40:48.604Z,2.60
2019-03-06T04:47:19.551Z,2.50
2019-03-06T04:53:49.745Z,2.60
2019-03-06T05:00:22.361Z,2.50
2019-03-06T05:03:47.451Z,2.40
2019-03-06T05:10:18.209Z,2.40
2019-03-06T05:16:53.903Z,2.10
2019-03-06T05:23:25.191Z,2.20
2019-03-06T05:26:49.296Z,2.40
2019-03-06T05:33:19.588Z,2.40
2019-03-06T05:39:50.878Z,2.30
2019-03-06T05:46:20.931Z,2.30
2019-03-06T05:49:45.389Z,2.30
2019-03-06T05:56:15.745Z,2.50
2019-03-06T06:02:46.692Z,2.40
2019-03-06T06:09:17.559Z,2.30
2019-03-06T06:11:47.340Z,2.30
2019-03-06T06:18:18.128Z,2.20
2019-03-06T06:24:48.891Z,2.20
2019-03-06T06:31:19.708Z,2.40
2019-03-06T06:34:44.513Z,2.50
2019-03-06T06:41:15.501Z,2.70
2019-03-06T06:48:11.092Z,2.90
2019-03-06T06:51:01.963Z,2.90
2019-03-06T06:57:53.419Z,3.20
2019-03-06T07:04:46.103Z,3.40
2019-03-06T07:08:10.247Z,3.60
2019-03-06T07:14:42.428Z,3.90
2019-03-06T07:21:16.933Z,4.30
2019-03-06T07:24:41.604Z,4.60
2019-03-06T07:31:14.421Z,5.20
2019-03-06T07:37:49.572Z,5.60
2019-03-06T07:44:36.734Z,5.90
2019-03-06T07:48:01.274Z,6.20
2019-03-06T07:54:33.386Z,6.30
2019-03-06T08:01:04.100Z,6.00
2019-03-06T08:04:28.778Z,6.30
2019-03-06T08:11:00.220Z,6.50
2019-03-06T08:13:51.551Z,6.30
2019-03-06T08:16:32.125Z,6.30
2019-03-06T08:23:09.819Z,6.40
2019-03-06T08:26:34.259Z,6.60
2019-03-06T08:33:04.725Z,6.50
2019-03-06T08:35:51.111Z,6.60
2019-03-06T08:46:23.495Z,7.20
2019-03-06T08:49:47.771Z,7.20
2019-03-06T08:56:25.295Z,7.30
2019-03-06T09:03:19.992Z,7.70
2019-03-06T09:10:00.719Z,8.00
2019-03-06T09:16:35.957Z,8.50
2019-03-06T09:23:23.183Z,8.70
2019-03-06T09:29:54.161Z,8.80
2019-03-06T09:36:44.276Z,8.10
2019-03-06T09:40:08.936Z,7.90
2019-03-06T09:46:58.042Z,7.60
2019-03-06T09:53:39.977Z,7.50
2019-03-06T10:00:16.606Z,7.40
2019-03-06T10:02:48.218Z,7.80
2019-03-06T10:06:12.770Z,8.00
2019-03-06T10:12:51.282Z,8.50
2019-03-06T10:19:29.673Z,9.00
2019-03-06T10:26:00.980Z,9.50
2019-03-06T10:29:25.571Z,9.40
2019-03-06T10:35:56.615Z,9.70
2019-03-06T10:42:27.929Z,9.70
2019-03-06T10:48:58.809Z,10.20
2019-03-06T10:55:29.720Z,10.70
2019-03-06T11:02:01.111Z,11.10
2019-03-06T11:08:32.260Z,10.60
2019-03-06T11:11:56.861Z,10.70
2019-03-06T11:18:28.064Z,10.50
2019-03-06T11:20:57.971Z,10.40
2019-03-06T11:27:28.865Z,10.60
2019-03-06T11:33:59.916Z,10.80
2019-03-06T11:40:31.175Z,10.80
2019-03-06T11:47:03.815Z,10.90
2019-03-06T11:53:34.724Z,11.20
2019-03-06T12:00:39.659Z,11.20
2019-03-06T12:07:11.139Z,11.40
2019-03-06T12:13:42.361Z,11.00
2019-03-06T12:17:06.831Z,10.80
2019-03-06T12:23:37.447Z,11.00
2019-03-06T12:30:16.726Z,11.30
2019-03-06T12:36:47.693Z,11.40
2019-03-06T12:43:18.673Z,11.60
2019-03-06T12:49:49.441Z,11.90
2019-03-06T12:56:20.226Z,12.20
2019-03-06T13:02:51.538Z,12.30
2019-03-06T13:09:23.718Z,12.30
2019-03-06T13:15:54.735Z,12.50
2019-03-06T13:22:25.818Z,12.50
2019-03-06T13:24:55.726Z,12.50
2019-03-06T13:31:26.662Z,12.70
2019-03-06T13:37:57.545Z,13.00
2019-03-06T13:44:28.429Z,13.00
2019-03-06T13:50:59.159Z,13.30
2019-03-06T13:57:29.827Z,13.40
2019-03-06T14:04:00.573Z,13.70
2019-03-06T14:10:31.401Z,13.70
2019-03-06T14:17:02.332Z,13.60
2019-03-06T14:23:35.244Z,13.90
2019-03-06T14:26:07.052Z,14.10
2019-03-06T14:32:38.631Z,13.80
2019-03-06T14:39:26.905Z,13.60
2019-03-06T14:42:51.444Z,13.60
2019-03-06T14:49:41.594Z,13.60
2019-03-06T14:52:35.482Z,13.60
2019-03-06T14:55:07.746Z,13.50
2019-03-06T14:57:38.492Z,13.50
2019-03-06T15:00:12.294Z,13.60
2019-03-06T15:03:36.971Z,13.50
2019-03-06T15:10:10.850Z,13.40
2019-03-06T15:16:41.954Z,13.20
2019-03-06T15:23:13.246Z,13.10
2019-03-06T15:26:37.875Z,12.80
2019-03-06T15:33:09.131Z,12.40
2019-03-06T15:36:20.323Z,12.40
2019-03-06T15:42:51.022Z,12.30
2019-03-06T15:46:15.517Z,12.20
2019-03-06T15:52:46.205Z,12.20
2019-03-06T15:59:16.624Z,12.20
2019-03-06T16:02:40.808Z,12.20
2019-03-06T16:09:10.952Z,12.00
2019-03-06T16:12:35.011Z,11.90
2019-03-06T16:19:05.906Z,11.60
2019-03-06T16:25:39.718Z,11.60
2019-03-06T16:29:02.707Z,11.50
2019-03-06T16:35:33.117Z,11.40
2019-03-06T16:38:57.651Z,11.30
2019-03-06T16:45:29.725Z,11.00
2019-03-06T16:52:00.371Z,11.00
2019-03-06T16:54:30.384Z,11.00
2019-03-06T17:01:01.928Z,10.90
2019-03-06T17:07:32.687Z,10.60
2019-03-06T17:14:04.147Z,10.50
2019-03-06T17:20:36.068Z,10.40
2019-03-06T17:24:00.377Z,10.20
2019-03-06T17:30:33.103Z,10.00
2019-03-06T17:33:57.457Z,10.00
2019-03-06T17:40:29.534Z,9.80
2019-03-06T17:43:54.697Z,9.90
2019-03-06T17:50:25.915Z,9.70
2019-03-06T17:56:57.020Z,9.80
2019-03-06T18:03:31.197Z,9.90
2019-03-06T18:10:02.791Z,11.50
2019-03-06T18:13:27.648Z,11.50
2019-03-06T18:19:58.676Z,11.90
2019-03-06T18:26:29.874Z,11.80
2019-03-06T18:29:54.062Z,12.10
2019-03-06T18:36:24.906Z,12.00
2019-03-06T18:39:49.488Z,12.10
2019-03-06T18:46:20.569Z,12.50
2019-03-06T18:52:51.700Z,12.90
2019-03-06T18:59:23.031Z,12.70
2019-03-06T19:02:29.406Z,12.80
2019-03-06T19:09:00.473Z,13.00
2019-03-06T19:15:32.939Z,12.90
2019-03-06T19:22:03.369Z,13.20
2019-03-06T19:25:27.995Z,13.30
2019-03-06T19:31:58.160Z,13.20
2019-03-06T19:35:22.090Z,13.20
2019-03-06T19:41:52.334Z,13.20
2019-03-06T19:44:52.643Z,13.20
2019-03-06T19:51:23.818Z,13.20
2019-03-06T19:54:48.948Z,13.20
2019-03-06T20:01:19.516Z,13.20
2019-03-06T20:07:49.908Z,13.40
2019-03-06T20:14:20.774Z,13.40
2019-03-06T20:20:52.300Z,13.30
2019-03-06T20:24:17.204Z,13.40
2019-03-06T20:30:48.342Z,13.30
2019-03-06T20:37:18.983Z,13.10
2019-03-06T20:40:25.480Z,13.10
2019-03-06T20:46:55.925Z,13.30
2019-03-06T20:53:26.047Z,13.40
2019-03-06T20:59:56.321Z,13.30
2019-03-06T21:02:26.315Z,13.10
2019-03-06T21:08:56.845Z,13.50
2019-03-06T21:15:26.724Z,13.40
2019-03-06T21:21:57.623Z,13.40
2019-03-06T21:25:22.035Z,13.30
2019-03-06T21:31:52.733Z,13.40
2019-03-06T21:38:23.741Z,13.40
2019-03-06T21:44:54.860Z,13.60
2019-03-06T21:51:26.096Z,13.60
2019-03-06T21:54:50.542Z,13.40
2019-03-06T22:01:21.240Z,13.50
2019-03-06T22:03:51.172Z,13.40
2019-03-06T22:10:21.909Z,13.40
2019-03-06T22:16:52.754Z,13.60
2019-03-06T22:20:17.119Z,13.60
2019-03-06T22:26:47.839Z,13.30
2019-03-06T22:33:18.414Z,13.30
2019-03-06T22:36:42.923Z,13.40
2019-03-06T22:43:13.415Z,13.60
2019-03-06T22:46:37.873Z,13.60
2019-03-06T22:53:08.818Z,13.50
2019-03-06T22:59:39.557Z,13.70
2019-03-06T23:06:10.849Z,13.50
2019-03-06T23:09:18.835Z,13.50
2019-03-06T23:15:49.559Z,13.60
2019-03-06T23:22:20.498Z,13.60
2019-03-06T23:28:51.572Z,13.50
2019-03-06T23:35:22.509Z,13.50
2019-03-06T23:41:52.983Z,13.80
2019-03-06T23:48:24.018Z,13.60
2019-03-06T23:54:55.154Z,13.60
2019-03-06T23:57:44.227Z,13.60
